Flight Track Log - Related Links

Times and Time Zones

All times are in EST time to prevent confusion due to time zone crossing. See the N465TP flight status page for this flight to view local times or setup timezone preferences in your user account.


Time Position Orientation Groundspeed Altitude Reporting Facility
EST Latitude Longitude Course Direction KTS MPH feet Rate Location/Type
Thu 09:47:36 AM 44.5394 -109.0028 19° North 137 158 6,300  Level Salt Lake Center
Thu 09:48:37 AM 44.5817 -108.9922 10° North 153 176 7,600 1,328 Climbing Salt Lake Center
Thu 09:49:00 AM 44.7786 -108.9143 North  Level FlightAware Approximate
Thu 09:49:38 AM 44.6256 -108.9797 11° North 155 178 9,000  Level Salt Lake Center
Thu 09:50:00 AM 44.8235 -108.9053 North  Level FlightAware Approximate
Thu 09:50:39 AM 44.6717 -108.9669 11° North 161 185 10,600  Level Salt Lake Center
Thu 09:51:00 AM 44.8679 -108.8929 16° North  Level FlightAware Approximate
Thu 09:51:41 AM 44.7181 -108.9533 12° North 166 191 12,200  Level Salt Lake Center
Thu 09:52:00 AM 44.9115 -108.8754 16° North  Level FlightAware Approximate
Thu 09:52:42 AM 44.7633 -108.9403 12° North 167 192 13,900  Level Salt Lake Center
Thu 09:53:00 AM 44.9547 -108.8560 19° North  Level FlightAware Approximate
Thu 09:53:43 AM 44.8086 -108.9258 13° North 167 192 14,800  Level Salt Lake Center
Thu 09:54:44 AM 44.8642 -108.9094 12° North 187 215 14,900  Climbing Salt Lake Center
Thu 09:55:45 AM 44.9236 -108.8914 12° North 210 242 14,800  Descending Salt Lake Center
Thu 09:56:46 AM 44.9808 -108.8750 11° North 210 242 14,900  Climbing Salt Lake Center
Thu 09:57:48 AM 45.0508 -108.8547 12° North 212 244 14,800  Descending Salt Lake Center
Thu 09:58:49 AM 45.1044 -108.8381 12° North 209 241 14,900 49 Climbing Salt Lake Center
Thu 09:59:50 AM 45.1647 -108.8200 12° North 207 238 14,900 -148 Level Salt Lake Center
Thu 10:00:51 AM 45.2219 -108.8064 10° North 211 243 14,600 -488 Descending Salt Lake Center
Thu 10:01:53 AM 45.2778 -108.8056 North 204 235 13,900 -683 Descending Salt Lake Center
Thu 10:02:54 AM 45.3367 -108.8003 North 199 229 13,200 -689 Descending Salt Lake Center
Thu 10:03:55 AM 45.3914 -108.7969 North 200 230 12,500 -689 Descending Salt Lake Center
Thu 10:04:56 AM 45.4478 -108.7950 North 205 236 11,800 -780 Descending Salt Lake Center
Thu 10:05:58 AM 45.5122 -108.7947 360° North 215 247 10,900 -878 Descending Salt Lake Center
Thu 10:06:59 AM 45.5711 -108.8039 354° North 215 247 10,000 -934 Descending Salt Lake Center
Thu 10:08:00 AM 45.6256 -108.8150 352° North 202 232 9,000 -1,033 Descending Salt Lake Center
Thu 10:09:01 AM 45.6831 -108.8169 359° North 194 223 7,900 -976 Descending Salt Lake Center
Thu 10:10:03 AM 45.7350 -108.8297 350° North 191 220 7,000 -878 Descending Salt Lake Center
Thu 10:11:04 AM 45.7825 -108.8353 355° North 173 199 6,100 -492 Descending Salt Lake Center
Thu 10:12:05 AM 45.8319 -108.8183 13° North 173 199 6,000 -148 Descending Salt Lake Center
Thu 10:13:06 AM 45.8667 -108.7786 39° Northeast 166 191 5,800 -146 Descending Salt Lake Center
Thu 10:14:08 AM 45.8569 -108.7136 102° East 169 194 5,700 -341 Descending Salt Lake Center
Thu 10:15:09 AM 45.8397 -108.6522 112° Southeast 156 180 5,100 -689 Descending Salt Lake Center
Thu 10:16:10 AM 45.8264 -108.6044 112° Southeast 134 154 4,300 -732 Descending Salt Lake Center
Thu 10:17:12 AM 45.8136 -108.5569 111° Southeast 122 140 3,600 -677 Descending Salt Lake Center

Login

Don't have an account? Register now (free) for customized features, flight alerts, and more!